sensor_id;sensor_type;location;lat;lon;timestamp;P1;durP1;ratioP1;P2;durP2;ratioP2
23720;SDS011;42950;52.134;5.578;2022-08-26T00:00:28;8.40;;;4.78;;
23720;SDS011;42950;52.134;5.578;2022-08-26T00:02:54;8.45;;;4.43;;
23720;SDS011;42950;52.134;5.578;2022-08-26T00:05:19;11.20;;;5.40;;
23720;SDS011;42950;52.134;5.578;2022-08-26T00:07:45;10.90;;;5.05;;
23720;SDS011;42950;52.134;5.578;2022-08-26T00:10:11;10.77;;;5.22;;
23720;SDS011;42950;52.134;5.578;2022-08-26T00:12:37;9.98;;;4.78;;
23720;SDS011;42950;52.134;5.578;2022-08-26T00:15:04;8.80;;;5.22;;
23720;SDS011;42950;52.134;5.578;2022-08-26T00:17:31;14.70;;;5.28;;
23720;SDS011;42950;52.134;5.578;2022-08-26T00:19:57;12.93;;;5.68;;
23720;SDS011;42950;52.134;5.578;2022-08-26T00:22:23;11.18;;;4.93;;
23720;SDS011;42950;52.134;5.578;2022-08-26T00:24:49;11.07;;;4.90;;
23720;SDS011;42950;52.134;5.578;2022-08-26T00:27:14;10.48;;;4.35;;
23720;SDS011;42950;52.134;5.578;2022-08-26T00:29:40;11.95;;;4.65;;
23720;SDS011;42950;52.134;5.578;2022-08-26T00:32:05;12.45;;;4.90;;
23720;SDS011;42950;52.134;5.578;2022-08-26T00:34:31;15.40;;;5.30;;
23720;SDS011;42950;52.134;5.578;2022-08-26T00:36:56;13.10;;;5.03;;
23720;SDS011;42950;52.134;5.578;2022-08-26T00:39:22;13.02;;;4.88;;
23720;SDS011;42950;52.134;5.578;2022-08-26T00:41:48;10.38;;;4.60;;
23720;SDS011;42950;52.134;5.578;2022-08-26T00:44:14;8.75;;;4.05;;
23720;SDS011;42950;52.134;5.578;2022-08-26T00:46:42;12.45;;;4.78;;
23720;SDS011;42950;52.134;5.578;2022-08-26T00:49:16;11.48;;;4.95;;
23720;SDS011;42950;52.134;5.578;2022-08-26T00:51:56;10.32;;;4.97;;
23720;SDS011;42950;52.134;5.578;2022-08-26T00:54:25;9.80;;;4.38;;
23720;SDS011;42950;52.134;5.578;2022-08-26T00:56:54;9.73;;;4.40;;
23720;SDS011;42950;52.134;5.578;2022-08-26T00:59:24;11.55;;;4.70;;
23720;SDS011;42950;52.134;5.578;2022-08-26T01:01:50;11.05;;;4.35;;
23720;SDS011;42950;52.134;5.578;2022-08-26T01:04:17;10.30;;;4.50;;
23720;SDS011;42950;52.134;5.578;2022-08-26T01:06:46;11.80;;;4.78;;
23720;SDS011;42950;52.134;5.578;2022-08-26T01:09:14;8.63;;;4.32;;
23720;SDS011;42950;52.134;5.578;2022-08-26T01:11:40;7.53;;;4.30;;
23720;SDS011;42950;52.134;5.578;2022-08-26T01:14:07;12.52;;;4.47;;
23720;SDS011;42950;52.134;5.578;2022-08-26T01:16:34;8.75;;;4.20;;
23720;SDS011;42950;52.134;5.578;2022-08-26T01:19:02;14.13;;;5.00;;
23720;SDS011;42950;52.134;5.578;2022-08-26T01:21:40;11.30;;;4.72;;
23720;SDS011;42950;52.134;5.578;2022-08-26T01:24:12;14.00;;;4.80;;
23720;SDS011;42950;52.134;5.578;2022-08-26T01:26:39;12.23;;;4.55;;
23720;SDS011;42950;52.134;5.578;2022-08-26T01:29:07;12.30;;;5.13;;
23720;SDS011;42950;52.134;5.578;2022-08-26T01:31:38;12.02;;;4.95;;
23720;SDS011;42950;52.134;5.578;2022-08-26T01:34:16;8.80;;;4.57;;
23720;SDS011;42950;52.134;5.578;2022-08-26T01:37:10;8.02;;;4.10;;
23720;SDS011;42950;52.134;5.578;2022-08-26T01:39:42;11.57;;;4.50;;
23720;SDS011;42950;52.134;5.578;2022-08-26T01:42:11;9.20;;;3.92;;
23720;SDS011;42950;52.134;5.578;2022-08-26T01:44:43;11.18;;;3.85;;
23720;SDS011;42950;52.134;5.578;2022-08-26T01:47:13;10.43;;;3.70;;
23720;SDS011;42950;52.134;5.578;2022-08-26T01:49:40;6.13;;;3.22;;
23720;SDS011;42950;52.134;5.578;2022-08-26T01:52:08;13.25;;;4.00;;
23720;SDS011;42950;52.134;5.578;2022-08-26T01:54:40;13.40;;;3.65;;
23720;SDS011;42950;52.134;5.578;2022-08-26T01:57:05;7.40;;;2.92;;
23720;SDS011;42950;52.134;5.578;2022-08-26T01:59:31;9.00;;;3.03;;
23720;SDS011;42950;52.134;5.578;2022-08-26T02:01:58;10.20;;;3.55;;
23720;SDS011;42950;52.134;5.578;2022-08-26T02:04:38;9.05;;;3.25;;
23720;SDS011;42950;52.134;5.578;2022-08-26T02:07:11;9.70;;;3.65;;
23720;SDS011;42950;52.134;5.578;2022-08-26T02:09:39;9.68;;;3.42;;
23720;SDS011;42950;52.134;5.578;2022-08-26T02:12:05;7.07;;;2.83;;
23720;SDS011;42950;52.134;5.578;2022-08-26T02:14:34;8.75;;;3.33;;
23720;SDS011;42950;52.134;5.578;2022-08-26T02:17:02;8.23;;;2.80;;
23720;SDS011;42950;52.134;5.578;2022-08-26T02:19:29;6.80;;;3.00;;
23720;SDS011;42950;52.134;5.578;2022-08-26T02:21:59;10.90;;;3.30;;
23720;SDS011;42950;52.134;5.578;2022-08-26T02:24:28;11.27;;;2.88;;
23720;SDS011;42950;52.134;5.578;2022-08-26T02:27:10;9.40;;;2.53;;
23720;SDS011;42950;52.134;5.578;2022-08-26T02:29:36;10.40;;;2.72;;
23720;SDS011;42950;52.134;5.578;2022-08-26T02:32:07;5.47;;;2.08;;
23720;SDS011;42950;52.134;5.578;2022-08-26T02:34:34;8.05;;;2.35;;
23720;SDS011;42950;52.134;5.578;2022-08-26T02:37:00;9.93;;;2.40;;
23720;SDS011;42950;52.134;5.578;2022-08-26T02:39:28;6.93;;;2.20;;
23720;SDS011;42950;52.134;5.578;2022-08-26T02:41:55;10.07;;;2.40;;
23720;SDS011;42950;52.134;5.578;2022-08-26T02:44:21;5.57;;;1.80;;
23720;SDS011;42950;52.134;5.578;2022-08-26T02:46:47;7.80;;;1.85;;
23720;SDS011;42950;52.134;5.578;2022-08-26T02:49:13;5.50;;;1.58;;
23720;SDS011;42950;52.134;5.578;2022-08-26T02:51:40;8.63;;;1.70;;
23720;SDS011;42950;52.134;5.578;2022-08-26T02:54:06;7.03;;;2.00;;
23720;SDS011;42950;52.134;5.578;2022-08-26T02:56:32;5.35;;;1.35;;
23720;SDS011;42950;52.134;5.578;2022-08-26T02:58:58;8.63;;;2.03;;
23720;SDS011;42950;52.134;5.578;2022-08-26T03:01:25;5.28;;;1.38;;
23720;SDS011;42950;52.134;5.578;2022-08-26T03:03:53;9.65;;;2.08;;
23720;SDS011;42950;52.134;5.578;2022-08-26T03:06:18;7.00;;;1.40;;
23720;SDS011;42950;52.134;5.578;2022-08-26T03:08:45;7.53;;;2.13;;
23720;SDS011;42950;52.134;5.578;2022-08-26T03:11:11;7.25;;;1.70;;
23720;SDS011;42950;52.134;5.578;2022-08-26T03:13:37;6.93;;;1.60;;
23720;SDS011;42950;52.134;5.578;2022-08-26T03:16:03;4.93;;;1.73;;
23720;SDS011;42950;52.134;5.578;2022-08-26T03:18:29;6.72;;;1.42;;
23720;SDS011;42950;52.134;5.578;2022-08-26T03:20:55;6.47;;;1.80;;
23720;SDS011;42950;52.134;5.578;2022-08-26T03:23:21;7.47;;;1.50;;
23720;SDS011;42950;52.134;5.578;2022-08-26T03:25:48;5.70;;;1.50;;
23720;SDS011;42950;52.134;5.578;2022-08-26T03:28:15;9.68;;;1.98;;
23720;SDS011;42950;52.134;5.578;2022-08-26T03:30:40;7.50;;;1.63;;
23720;SDS011;42950;52.134;5.578;2022-08-26T03:33:06;4.32;;;1.65;;
23720;SDS011;42950;52.134;5.578;2022-08-26T03:35:34;6.05;;;1.42;;
23720;SDS011;42950;52.134;5.578;2022-08-26T03:37:59;7.55;;;1.70;;
23720;SDS011;42950;52.134;5.578;2022-08-26T03:40:25;7.03;;;1.40;;
23720;SDS011;42950;52.134;5.578;2022-08-26T03:42:51;6.07;;;1.55;;
23720;SDS011;42950;52.134;5.578;2022-08-26T03:45:17;4.60;;;1.20;;
23720;SDS011;42950;52.134;5.578;2022-08-26T03:47:43;7.50;;;1.58;;
23720;SDS011;42950;52.134;5.578;2022-08-26T03:50:10;7.13;;;1.50;;
23720;SDS011;42950;52.134;5.578;2022-08-26T03:52:38;8.32;;;1.40;;
23720;SDS011;42950;52.134;5.578;2022-08-26T03:55:04;5.07;;;1.25;;
23720;SDS011;42950;52.134;5.578;2022-08-26T03:57:30;8.27;;;1.42;;
23720;SDS011;42950;52.134;5.578;2022-08-26T03:59:56;8.68;;;1.90;;
23720;SDS011;42950;52.134;5.578;2022-08-26T04:02:22;5.95;;;1.38;;
23720;SDS011;42950;52.134;5.578;2022-08-26T04:04:48;7.10;;;1.70;;
23720;SDS011;42950;52.134;5.578;2022-08-26T04:07:14;8.38;;;1.70;;
23720;SDS011;42950;52.134;5.578;2022-08-26T04:09:39;5.60;;;1.30;;
23720;SDS011;42950;52.134;5.578;2022-08-26T04:12:05;6.68;;;1.50;;
23720;SDS011;42950;52.134;5.578;2022-08-26T04:14:31;7.13;;;1.58;;
23720;SDS011;42950;52.134;5.578;2022-08-26T04:16:56;6.55;;;1.30;;
23720;SDS011;42950;52.134;5.578;2022-08-26T04:19:23;6.35;;;1.23;;
23720;SDS011;42950;52.134;5.578;2022-08-26T04:21:49;9.30;;;1.52;;
23720;SDS011;42950;52.134;5.578;2022-08-26T04:24:17;4.00;;;1.08;;
23720;SDS011;42950;52.134;5.578;2022-08-26T04:26:44;7.25;;;1.15;;
23720;SDS011;42950;52.134;5.578;2022-08-26T04:29:11;5.00;;;1.15;;
23720;SDS011;42950;52.134;5.578;2022-08-26T04:31:39;5.50;;;1.20;;
23720;SDS011;42950;52.134;5.578;2022-08-26T04:34:05;8.40;;;1.42;;
23720;SDS011;42950;52.134;5.578;2022-08-26T04:36:32;8.73;;;1.45;;
23720;SDS011;42950;52.134;5.578;2022-08-26T04:38:58;7.68;;;1.33;;
23720;SDS011;42950;52.134;5.578;2022-08-26T04:41:25;5.68;;;1.23;;
23720;SDS011;42950;52.134;5.578;2022-08-26T04:43:51;5.57;;;1.23;;
23720;SDS011;42950;52.134;5.578;2022-08-26T04:46:18;7.32;;;1.23;;
23720;SDS011;42950;52.134;5.578;2022-08-26T04:48:46;7.78;;;1.13;;
23720;SDS011;42950;52.134;5.578;2022-08-26T04:51:15;6.43;;;1.40;;
23720;SDS011;42950;52.134;5.578;2022-08-26T04:53:40;4.43;;;1.40;;
23720;SDS011;42950;52.134;5.578;2022-08-26T04:56:06;5.55;;;1.25;;
23720;SDS011;42950;52.134;5.578;2022-08-26T04:58:32;7.00;;;1.38;;
23720;SDS011;42950;52.134;5.578;2022-08-26T05:00:58;8.27;;;1.38;;
23720;SDS011;42950;52.134;5.578;2022-08-26T05:03:24;8.25;;;1.27;;
23720;SDS011;42950;52.134;5.578;2022-08-26T05:05:51;8.95;;;1.60;;
23720;SDS011;42950;52.134;5.578;2022-08-26T05:08:18;6.07;;;1.58;;
23720;SDS011;42950;52.134;5.578;2022-08-26T05:10:46;8.18;;;1.67;;
23720;SDS011;42950;52.134;5.578;2022-08-26T05:13:15;6.32;;;1.67;;
23720;SDS011;42950;52.134;5.578;2022-08-26T05:15:42;7.70;;;1.90;;
23720;SDS011;42950;52.134;5.578;2022-08-26T05:18:09;5.90;;;1.60;;
23720;SDS011;42950;52.134;5.578;2022-08-26T05:20:42;7.50;;;1.70;;
23720;SDS011;42950;52.134;5.578;2022-08-26T05:23:12;11.30;;;2.03;;
23720;SDS011;42950;52.134;5.578;2022-08-26T05:25:39;6.93;;;1.70;;
23720;SDS011;42950;52.134;5.578;2022-08-26T05:28:07;6.82;;;1.85;;
23720;SDS011;42950;52.134;5.578;2022-08-26T05:30:34;8.13;;;1.70;;
23720;SDS011;42950;52.134;5.578;2022-08-26T05:33:01;5.65;;;1.48;;
23720;SDS011;42950;52.134;5.578;2022-08-26T05:35:28;8.60;;;1.63;;
23720;SDS011;42950;52.134;5.578;2022-08-26T05:37:56;9.07;;;1.98;;
23720;SDS011;42950;52.134;5.578;2022-08-26T05:40:22;6.00;;;1.80;;
23720;SDS011;42950;52.134;5.578;2022-08-26T05:42:48;8.88;;;1.52;;
23720;SDS011;42950;52.134;5.578;2022-08-26T05:45:14;8.02;;;1.67;;
23720;SDS011;42950;52.134;5.578;2022-08-26T05:47:40;11.20;;;1.55;;
23720;SDS011;42950;52.134;5.578;2022-08-26T05:50:06;7.97;;;1.90;;
23720;SDS011;42950;52.134;5.578;2022-08-26T05:52:32;7.07;;;1.55;;
23720;SDS011;42950;52.134;5.578;2022-08-26T05:54:57;8.68;;;1.52;;
23720;SDS011;42950;52.134;5.578;2022-08-26T05:57:23;10.43;;;1.70;;
23720;SDS011;42950;52.134;5.578;2022-08-26T05:59:49;9.75;;;1.65;;
23720;SDS011;42950;52.134;5.578;2022-08-26T06:02:15;7.00;;;1.55;;
23720;SDS011;42950;52.134;5.578;2022-08-26T06:04:41;6.75;;;1.50;;
23720;SDS011;42950;52.134;5.578;2022-08-26T06:07:07;7.88;;;1.63;;
23720;SDS011;42950;52.134;5.578;2022-08-26T06:09:35;8.27;;;1.92;;
23720;SDS011;42950;52.134;5.578;2022-08-26T06:12:01;7.50;;;1.45;;
23720;SDS011;42950;52.134;5.578;2022-08-26T06:14:27;7.32;;;1.73;;
23720;SDS011;42950;52.134;5.578;2022-08-26T06:16:54;8.52;;;1.23;;
23720;SDS011;42950;52.134;5.578;2022-08-26T06:19:20;10.15;;;1.40;;
23720;SDS011;42950;52.134;5.578;2022-08-26T06:21:47;6.32;;;1.45;;
23720;SDS011;42950;52.134;5.578;2022-08-26T06:24:14;10.57;;;1.40;;
23720;SDS011;42950;52.134;5.578;2022-08-26T06:27:00;5.85;;;1.20;;
23720;SDS011;42950;52.134;5.578;2022-08-26T06:29:30;7.15;;;1.35;;
23720;SDS011;42950;52.134;5.578;2022-08-26T06:31:58;7.10;;;1.38;;
23720;SDS011;42950;52.134;5.578;2022-08-26T06:34:24;7.45;;;1.27;;
23720;SDS011;42950;52.134;5.578;2022-08-26T06:36:52;7.40;;;1.80;;
23720;SDS011;42950;52.134;5.578;2022-08-26T06:39:19;12.30;;;1.50;;
23720;SDS011;42950;52.134;5.578;2022-08-26T06:41:45;7.57;;;1.27;;
23720;SDS011;42950;52.134;5.578;2022-08-26T06:44:11;7.07;;;1.40;;
23720;SDS011;42950;52.134;5.578;2022-08-26T06:46:39;7.68;;;1.23;;
23720;SDS011;42950;52.134;5.578;2022-08-26T06:49:05;6.60;;;1.42;;
23720;SDS011;42950;52.134;5.578;2022-08-26T06:51:32;8.60;;;1.67;;
23720;SDS011;42950;52.134;5.578;2022-08-26T06:53:59;8.20;;;1.67;;
23720;SDS011;42950;52.134;5.578;2022-08-26T06:56:27;6.25;;;1.40;;
23720;SDS011;42950;52.134;5.578;2022-08-26T06:58:57;8.70;;;1.40;;
23720;SDS011;42950;52.134;5.578;2022-08-26T07:01:23;7.80;;;1.10;;
23720;SDS011;42950;52.134;5.578;2022-08-26T07:03:55;8.65;;;1.30;;
23720;SDS011;42950;52.134;5.578;2022-08-26T07:06:22;9.77;;;1.35;;
23720;SDS011;42950;52.134;5.578;2022-08-26T07:08:50;8.30;;;1.17;;
23720;SDS011;42950;52.134;5.578;2022-08-26T07:11:16;4.50;;;1.52;;
23720;SDS011;42950;52.134;5.578;2022-08-26T07:13:43;7.90;;;1.80;;
23720;SDS011;42950;52.134;5.578;2022-08-26T07:16:10;6.97;;;1.42;;
23720;SDS011;42950;52.134;5.578;2022-08-26T07:18:38;10.57;;;1.30;;
23720;SDS011;42950;52.134;5.578;2022-08-26T07:21:08;6.22;;;1.30;;
23720;SDS011;42950;52.134;5.578;2022-08-26T07:23:35;7.65;;;1.27;;
23720;SDS011;42950;52.134;5.578;2022-08-26T07:26:09;8.10;;;1.42;;
23720;SDS011;42950;52.134;5.578;2022-08-26T07:28:37;6.07;;;1.40;;
23720;SDS011;42950;52.134;5.578;2022-08-26T07:31:07;10.77;;;1.08;;
23720;SDS011;42950;52.134;5.578;2022-08-26T07:33:34;7.78;;;1.15;;
23720;SDS011;42950;52.134;5.578;2022-08-26T07:36:00;10.13;;;1.38;;
23720;SDS011;42950;52.134;5.578;2022-08-26T07:38:26;9.57;;;1.38;;
23720;SDS011;42950;52.134;5.578;2022-08-26T07:40:52;8.43;;;1.33;;
23720;SDS011;42950;52.134;5.578;2022-08-26T07:43:18;6.45;;;1.67;;
23720;SDS011;42950;52.134;5.578;2022-08-26T07:45:43;9.93;;;1.67;;
23720;SDS011;42950;52.134;5.578;2022-08-26T07:48:09;10.27;;;1.67;;
23720;SDS011;42950;52.134;5.578;2022-08-26T07:50:35;5.50;;;1.33;;
23720;SDS011;42950;52.134;5.578;2022-08-26T07:53:01;8.05;;;1.40;;
23720;SDS011;42950;52.134;5.578;2022-08-26T07:55:28;10.35;;;1.80;;
23720;SDS011;42950;52.134;5.578;2022-08-26T07:57:54;5.70;;;1.35;;
23720;SDS011;42950;52.134;5.578;2022-08-26T08:00:20;10.52;;;1.95;;
23720;SDS011;42950;52.134;5.578;2022-08-26T08:02:45;6.35;;;1.27;;
23720;SDS011;42950;52.134;5.578;2022-08-26T08:05:12;7.57;;;1.50;;
23720;SDS011;42950;52.134;5.578;2022-08-26T08:07:40;5.25;;;1.50;;
23720;SDS011;42950;52.134;5.578;2022-08-26T08:10:06;7.38;;;1.75;;
23720;SDS011;42950;52.134;5.578;2022-08-26T08:12:32;8.90;;;1.42;;
23720;SDS011;42950;52.134;5.578;2022-08-26T08:14:58;6.32;;;1.10;;
23720;SDS011;42950;52.134;5.578;2022-08-26T08:17:24;7.72;;;1.42;;
23720;SDS011;42950;52.134;5.578;2022-08-26T08:19:49;8.88;;;1.30;;
23720;SDS011;42950;52.134;5.578;2022-08-26T08:22:16;12.02;;;1.33;;
23720;SDS011;42950;52.134;5.578;2022-08-26T08:24:42;6.55;;;1.63;;
23720;SDS011;42950;52.134;5.578;2022-08-26T08:27:08;7.78;;;1.58;;
23720;SDS011;42950;52.134;5.578;2022-08-26T08:29:35;4.75;;;0.90;;
23720;SDS011;42950;52.134;5.578;2022-08-26T08:32:01;10.20;;;1.65;;
23720;SDS011;42950;52.134;5.578;2022-08-26T08:34:28;6.60;;;1.50;;
23720;SDS011;42950;52.134;5.578;2022-08-26T08:36:54;4.53;;;1.23;;
23720;SDS011;42950;52.134;5.578;2022-08-26T08:39:20;7.07;;;1.13;;
23720;SDS011;42950;52.134;5.578;2022-08-26T08:42:02;8.57;;;1.33;;
23720;SDS011;42950;52.134;5.578;2022-08-26T08:44:44;7.35;;;1.48;;
23720;SDS011;42950;52.134;5.578;2022-08-26T08:47:19;5.05;;;0.82;;
23720;SDS011;42950;52.134;5.578;2022-08-26T08:49:57;7.75;;;1.50;;
23720;SDS011;42950;52.134;5.578;2022-08-26T08:52:28;6.57;;;1.23;;
23720;SDS011;42950;52.134;5.578;2022-08-26T08:54:56;6.55;;;1.13;;
23720;SDS011;42950;52.134;5.578;2022-08-26T08:57:44;5.35;;;0.85;;
23720;SDS011;42950;52.134;5.578;2022-08-26T09:00:35;6.22;;;0.90;;
23720;SDS011;42950;52.134;5.578;2022-08-26T09:05:47;7.40;;;1.00;;
23720;SDS011;42950;52.134;5.578;2022-08-26T09:08:19;4.60;;;0.80;;
23720;SDS011;42950;52.134;5.578;2022-08-26T09:10:52;10.63;;;1.20;;
23720;SDS011;42950;52.134;5.578;2022-08-26T09:13:20;7.78;;;1.00;;
23720;SDS011;42950;52.134;5.578;2022-08-26T09:16:02;6.03;;;0.98;;
23720;SDS011;42950;52.134;5.578;2022-08-26T09:21:39;7.32;;;1.23;;
23720;SDS011;42950;52.134;5.578;2022-08-26T09:24:05;4.55;;;1.10;;
23720;SDS011;42950;52.134;5.578;2022-08-26T09:29:07;4.93;;;0.80;;
23720;SDS011;42950;52.134;5.578;2022-08-26T09:31:43;6.88;;;0.90;;
23720;SDS011;42950;52.134;5.578;2022-08-26T09:34:14;6.32;;;1.00;;
23720;SDS011;42950;52.134;5.578;2022-08-26T09:39:25;4.90;;;0.90;;
23720;SDS011;42950;52.134;5.578;2022-08-26T09:42:11;6.20;;;1.10;;
23720;SDS011;42950;52.134;5.578;2022-08-26T09:44:51;6.18;;;1.40;;
23720;SDS011;42950;52.134;5.578;2022-08-26T09:47:24;8.05;;;1.02;;
23720;SDS011;42950;52.134;5.578;2022-08-26T09:52:33;4.35;;;1.00;;
23720;SDS011;42950;52.134;5.578;2022-08-26T09:55:00;6.28;;;1.10;;
23720;SDS011;42950;52.134;5.578;2022-08-26T09:57:27;7.18;;;1.17;;
23720;SDS011;42950;52.134;5.578;2022-08-26T09:59:54;9.05;;;0.77;;
23720;SDS011;42950;52.134;5.578;2022-08-26T10:04:59;7.88;;;1.15;;
23720;SDS011;42950;52.134;5.578;2022-08-26T10:10:00;5.85;;;1.00;;
23720;SDS011;42950;52.134;5.578;2022-08-26T10:12:28;5.68;;;0.98;;
23720;SDS011;42950;52.134;5.578;2022-08-26T10:14:59;7.10;;;1.02;;
23720;SDS011;42950;52.134;5.578;2022-08-26T10:17:42;8.93;;;1.35;;
23720;SDS011;42950;52.134;5.578;2022-08-26T10:20:28;8.60;;;0.88;;
23720;SDS011;42950;52.134;5.578;2022-08-26T10:23:00;3.20;;;0.80;;
23720;SDS011;42950;52.134;5.578;2022-08-26T10:25:39;7.05;;;1.00;;
23720;SDS011;42950;52.134;5.578;2022-08-26T10:30:46;7.28;;;1.05;;
23720;SDS011;42950;52.134;5.578;2022-08-26T10:33:25;6.18;;;1.00;;
23720;SDS011;42950;52.134;5.578;2022-08-26T10:35:55;7.43;;;1.10;;
23720;SDS011;42950;52.134;5.578;2022-08-26T10:38:27;5.10;;;0.95;;
23720;SDS011;42950;52.134;5.578;2022-08-26T10:46:09;3.15;;;0.68;;
23720;SDS011;42950;52.134;5.578;2022-08-26T10:51:14;2.85;;;0.80;;
23720;SDS011;42950;52.134;5.578;2022-08-26T10:53:52;3.80;;;0.90;;
23720;SDS011;42950;52.134;5.578;2022-08-26T11:05:22;3.85;;;0.73;;
23720;SDS011;42950;52.134;5.578;2022-08-26T11:07:49;3.72;;;0.80;;
23720;SDS011;42950;52.134;5.578;2022-08-26T11:28:42;4.13;;;0.80;;
23720;SDS011;42950;52.134;5.578;2022-08-26T11:31:51;3.95;;;0.60;;
23720;SDS011;42950;52.134;5.578;2022-08-26T11:36:35;5.72;;;1.13;;
23720;SDS011;42950;52.134;5.578;2022-08-26T11:39:12;6.25;;;0.98;;
23720;SDS011;42950;52.134;5.578;2022-08-26T11:41:48;4.13;;;0.75;;
23720;SDS011;42950;52.134;5.578;2022-08-26T11:44:20;4.05;;;0.82;;
23720;SDS011;42950;52.134;5.578;2022-08-26T11:46:59;6.93;;;0.68;;
23720;SDS011;42950;52.134;5.578;2022-08-26T11:49:26;3.75;;;0.70;;
23720;SDS011;42950;52.134;5.578;2022-08-26T11:52:06;5.47;;;0.80;;
23720;SDS011;42950;52.134;5.578;2022-08-26T11:57:45;2.85;;;0.60;;
23720;SDS011;42950;52.134;5.578;2022-08-26T12:00:23;3.00;;;0.60;;
23720;SDS011;42950;52.134;5.578;2022-08-26T12:02:57;4.40;;;0.70;;
23720;SDS011;42950;52.134;5.578;2022-08-26T12:05:26;5.18;;;0.93;;
23720;SDS011;42950;52.134;5.578;2022-08-26T12:07:58;2.38;;;0.70;;
23720;SDS011;42950;52.134;5.578;2022-08-26T12:10:31;4.68;;;0.68;;
23720;SDS011;42950;52.134;5.578;2022-08-26T12:12:58;2.50;;;0.70;;
23720;SDS011;42950;52.134;5.578;2022-08-26T12:15:26;3.60;;;0.82;;
23720;SDS011;42950;52.134;5.578;2022-08-26T12:17:53;3.00;;;0.70;;
23720;SDS011;42950;52.134;5.578;2022-08-26T12:20:28;4.43;;;1.00;;
23720;SDS011;42950;52.134;5.578;2022-08-26T12:22:54;1.92;;;0.50;;
23720;SDS011;42950;52.134;5.578;2022-08-26T12:25:23;3.97;;;0.52;;
23720;SDS011;42950;52.134;5.578;2022-08-26T12:27:49;3.50;;;0.77;;
23720;SDS011;42950;52.134;5.578;2022-08-26T12:30:19;3.58;;;0.60;;
23720;SDS011;42950;52.134;5.578;2022-08-26T12:32:52;3.85;;;0.90;;
23720;SDS011;42950;52.134;5.578;2022-08-26T12:35:47;3.70;;;0.60;;
23720;SDS011;42950;52.134;5.578;2022-08-26T12:38:14;7.35;;;0.93;;
23720;SDS011;42950;52.134;5.578;2022-08-26T12:40:43;4.38;;;0.50;;
23720;SDS011;42950;52.134;5.578;2022-08-26T12:43:11;2.38;;;0.50;;
23720;SDS011;42950;52.134;5.578;2022-08-26T12:45:57;3.78;;;0.60;;
23720;SDS011;42950;52.134;5.578;2022-08-26T12:48:25;3.67;;;0.60;;
23720;SDS011;42950;52.134;5.578;2022-08-26T12:50:57;4.57;;;0.80;;
23720;SDS011;42950;52.134;5.578;2022-08-26T12:53:25;1.83;;;0.40;;
23720;SDS011;42950;52.134;5.578;2022-08-26T12:55:55;2.70;;;0.60;;
23720;SDS011;42950;52.134;5.578;2022-08-26T12:58:26;3.83;;;0.57;;
23720;SDS011;42950;52.134;5.578;2022-08-26T13:11:33;3.17;;;0.55;;
23720;SDS011;42950;52.134;5.578;2022-08-26T13:14:00;2.70;;;0.50;;
23720;SDS011;42950;52.134;5.578;2022-08-26T13:16:34;4.22;;;0.65;;
23720;SDS011;42950;52.134;5.578;2022-08-26T13:19:03;3.65;;;0.90;;
23720;SDS011;42950;52.134;5.578;2022-08-26T13:21:34;4.00;;;0.47;;
23720;SDS011;42950;52.134;5.578;2022-08-26T13:24:07;3.08;;;0.70;;
23720;SDS011;42950;52.134;5.578;2022-08-26T13:26:39;3.35;;;0.68;;
23720;SDS011;42950;52.134;5.578;2022-08-26T13:29:05;4.32;;;0.70;;
23720;SDS011;42950;52.134;5.578;2022-08-26T13:31:31;3.47;;;0.70;;
23720;SDS011;42950;52.134;5.578;2022-08-26T13:33:59;3.00;;;0.82;;
23720;SDS011;42950;52.134;5.578;2022-08-26T13:36:26;4.70;;;0.60;;
23720;SDS011;42950;52.134;5.578;2022-08-26T13:38:51;7.80;;;1.00;;
23720;SDS011;42950;52.134;5.578;2022-08-26T13:41:17;2.17;;;0.60;;
23720;SDS011;42950;52.134;5.578;2022-08-26T13:43:43;5.80;;;0.70;;
23720;SDS011;42950;52.134;5.578;2022-08-26T13:46:09;5.13;;;0.80;;
23720;SDS011;42950;52.134;5.578;2022-08-26T13:48:35;4.70;;;0.70;;
23720;SDS011;42950;52.134;5.578;2022-08-26T13:51:00;4.65;;;0.80;;
23720;SDS011;42950;52.134;5.578;2022-08-26T13:53:27;5.45;;;0.88;;
23720;SDS011;42950;52.134;5.578;2022-08-26T13:55:54;5.40;;;1.02;;
23720;SDS011;42950;52.134;5.578;2022-08-26T13:58:26;7.10;;;1.40;;
23720;SDS011;42950;52.134;5.578;2022-08-26T14:00:52;5.40;;;1.00;;
23720;SDS011;42950;52.134;5.578;2022-08-26T14:03:19;4.65;;;1.02;;
23720;SDS011;42950;52.134;5.578;2022-08-26T14:05:45;6.32;;;0.90;;
23720;SDS011;42950;52.134;5.578;2022-08-26T14:08:10;8.27;;;1.38;;
23720;SDS011;42950;52.134;5.578;2022-08-26T14:10:36;9.98;;;1.35;;
23720;SDS011;42950;52.134;5.578;2022-08-26T14:13:02;3.28;;;0.85;;
23720;SDS011;42950;52.134;5.578;2022-08-26T14:15:28;5.53;;;0.93;;
23720;SDS011;42950;52.134;5.578;2022-08-26T14:17:56;4.53;;;0.95;;
23720;SDS011;42950;52.134;5.578;2022-08-26T14:20:25;5.53;;;1.23;;
23720;SDS011;42950;52.134;5.578;2022-08-26T14:22:52;3.13;;;0.70;;
23720;SDS011;42950;52.134;5.578;2022-08-26T14:25:18;9.55;;;1.10;;
23720;SDS011;42950;52.134;5.578;2022-08-26T14:27:46;4.90;;;0.75;;
23720;SDS011;42950;52.134;5.578;2022-08-26T14:30:12;4.80;;;1.00;;
23720;SDS011;42950;52.134;5.578;2022-08-26T14:32:39;3.55;;;0.90;;
23720;SDS011;42950;52.134;5.578;2022-08-26T14:35:15;6.10;;;0.90;;
23720;SDS011;42950;52.134;5.578;2022-08-26T14:37:42;6.88;;;0.98;;
23720;SDS011;42950;52.134;5.578;2022-08-26T14:40:08;8.73;;;0.85;;
23720;SDS011;42950;52.134;5.578;2022-08-26T14:42:35;2.33;;;0.75;;
23720;SDS011;42950;52.134;5.578;2022-08-26T14:45:02;4.10;;;0.80;;
23720;SDS011;42950;52.134;5.578;2022-08-26T14:47:29;6.90;;;0.80;;
23720;SDS011;42950;52.134;5.578;2022-08-26T14:49:54;3.88;;;0.73;;
23720;SDS011;42950;52.134;5.578;2022-08-26T14:52:20;4.15;;;0.85;;
23720;SDS011;42950;52.134;5.578;2022-08-26T14:54:46;4.78;;;1.00;;
23720;SDS011;42950;52.134;5.578;2022-08-26T14:57:12;6.82;;;1.35;;
23720;SDS011;42950;52.134;5.578;2022-08-26T14:59:39;4.93;;;1.08;;
23720;SDS011;42950;52.134;5.578;2022-08-26T15:02:10;5.30;;;1.10;;
23720;SDS011;42950;52.134;5.578;2022-08-26T15:04:37;7.45;;;1.73;;
23720;SDS011;42950;52.134;5.578;2022-08-26T15:07:03;4.97;;;1.33;;
23720;SDS011;42950;52.134;5.578;2022-08-26T15:09:30;3.78;;;1.02;;
23720;SDS011;42950;52.134;5.578;2022-08-26T15:11:58;5.60;;;1.00;;
23720;SDS011;42950;52.134;5.578;2022-08-26T15:14:24;4.85;;;0.80;;
23720;SDS011;42950;52.134;5.578;2022-08-26T15:16:51;4.28;;;0.80;;
23720;SDS011;42950;52.134;5.578;2022-08-26T15:19:20;5.22;;;0.80;;
23720;SDS011;42950;52.134;5.578;2022-08-26T15:21:47;5.25;;;1.30;;
23720;SDS011;42950;52.134;5.578;2022-08-26T15:24:14;5.05;;;0.98;;
23720;SDS011;42950;52.134;5.578;2022-08-26T15:26:42;5.85;;;1.20;;
23720;SDS011;42950;52.134;5.578;2022-08-26T15:29:09;7.57;;;1.55;;
23720;SDS011;42950;52.134;5.578;2022-08-26T15:31:34;6.00;;;1.20;;
23720;SDS011;42950;52.134;5.578;2022-08-26T15:34:03;6.57;;;1.42;;
23720;SDS011;42950;52.134;5.578;2022-08-26T15:36:31;6.50;;;1.50;;
23720;SDS011;42950;52.134;5.578;2022-08-26T15:38:58;5.45;;;1.10;;
23720;SDS011;42950;52.134;5.578;2022-08-26T15:41:25;5.25;;;1.08;;
23720;SDS011;42950;52.134;5.578;2022-08-26T15:43:51;7.38;;;1.75;;
23720;SDS011;42950;52.134;5.578;2022-08-26T15:46:17;2.60;;;0.77;;
23720;SDS011;42950;52.134;5.578;2022-08-26T15:48:43;6.35;;;0.88;;
23720;SDS011;42950;52.134;5.578;2022-08-26T15:51:17;4.32;;;1.35;;
23720;SDS011;42950;52.134;5.578;2022-08-26T15:53:53;5.07;;;0.82;;
23720;SDS011;42950;52.134;5.578;2022-08-26T15:56:21;5.63;;;1.05;;
23720;SDS011;42950;52.134;5.578;2022-08-26T15:58:52;5.18;;;1.08;;
23720;SDS011;42950;52.134;5.578;2022-08-26T16:01:18;3.15;;;0.77;;
23720;SDS011;42950;52.134;5.578;2022-08-26T16:03:44;4.43;;;0.90;;
23720;SDS011;42950;52.134;5.578;2022-08-26T16:06:17;6.03;;;1.00;;